createdAt,value
2018-11-20T05:44:26.400Z,15.20
2018-11-20T05:47:20.090Z,14.20
2018-11-20T05:50:22.924Z,13.67
2018-11-20T05:53:09.170Z,12.13
2018-11-20T05:55:47.775Z,12.97
2018-11-20T05:58:31.441Z,13.33
2018-11-20T06:01:12.593Z,13.43
2018-11-20T06:04:15.426Z,12.47
2018-11-20T06:07:14.976Z,12.90
2018-11-20T06:10:01.018Z,12.73
2018-11-20T06:12:48.674Z,13.63
2018-11-20T06:15:34.885Z,13.27
2018-11-20T06:18:20.982Z,13.20
2018-11-20T06:21:20.592Z,13.03
2018-11-20T06:24:10.915Z,12.43
2018-11-20T06:26:57.204Z,12.40
2018-11-20T06:29:43.471Z,12.60
2018-11-20T06:32:34.205Z,13.03
2018-11-20T06:35:24.667Z,13.43
2018-11-20T06:38:10.581Z,12.77
2018-11-20T06:40:56.918Z,12.17
2018-11-20T06:43:50.313Z,11.77
2018-11-20T06:46:34.604Z,11.57
2018-11-20T06:49:22.135Z,12.10
2018-11-20T06:52:08.218Z,12.40
2018-11-20T06:55:04.677Z,11.70
2018-11-20T06:57:51.206Z,11.77
2018-11-20T07:00:38.757Z,10.90
2018-11-20T07:03:26.264Z,11.10
2018-11-20T07:06:17.046Z,11.27
2018-11-20T07:09:04.572Z,11.63
2018-11-20T07:11:55.262Z,12.20
2018-11-20T07:14:57.960Z,10.07
2018-11-20T07:17:44.049Z,10.30
2018-11-20T07:20:31.633Z,11.10
2018-11-20T07:23:13.464Z,10.83
2018-11-20T07:26:06.553Z,11.07
2018-11-20T07:28:54.087Z,10.63
2018-11-20T07:31:40.393Z,11.87
2018-11-20T07:34:26.486Z,10.73
2018-11-20T07:37:29.387Z,12.50
2018-11-20T07:40:11.226Z,10.50
2018-11-20T07:42:49.133Z,11.70
2018-11-20T07:45:35.414Z,13.47
2018-11-20T07:48:33.391Z,15.73
2018-11-20T07:51:19.706Z,12.03
2018-11-20T07:54:19.089Z,11.80
2018-11-20T07:57:05.438Z,9.90
2018-11-20T07:59:46.785Z,10.03
2018-11-20T08:02:33.121Z,10.37
2018-11-20T08:05:19.291Z,8.67
2018-11-20T08:08:05.744Z,8.80
2018-11-20T08:10:51.980Z,8.47
2018-11-20T08:13:37.890Z,8.73
2018-11-20T08:16:21.218Z,9.00
2018-11-20T08:19:11.504Z,8.67
2018-11-20T08:22:07.745Z,9.03
2018-11-20T08:24:49.702Z,8.53
2018-11-20T08:27:36.132Z,8.53
2018-11-20T08:30:22.730Z,7.97
2018-11-20T08:33:09.084Z,8.13
2018-11-20T08:35:55.450Z,8.10
2018-11-20T08:38:41.750Z,7.33
2018-11-20T08:41:27.593Z,7.77
2018-11-20T08:44:13.518Z,7.63
2018-11-20T08:46:52.699Z,7.23
2018-11-20T08:49:43.224Z,7.40
2018-11-20T08:52:30.740Z,6.93
2018-11-20T08:55:30.291Z,7.30
2018-11-20T08:58:23.980Z,8.27
2018-11-20T09:01:17.531Z,7.60
2018-11-20T09:04:23.558Z,8.20
2018-11-20T09:07:09.599Z,7.47
2018-11-20T09:09:55.539Z,7.07
2018-11-20T09:12:43.001Z,7.00
2018-11-20T09:15:45.864Z,7.40
2018-11-20T09:18:36.192Z,7.10
2018-11-20T09:21:26.571Z,7.83
2018-11-20T09:24:17.227Z,7.30
2018-11-20T09:27:07.263Z,6.73
2018-11-20T09:30:03.704Z,7.90
2018-11-20T09:32:49.608Z,7.90
2018-11-20T09:35:31.721Z,7.40
2018-11-20T09:38:19.911Z,7.20
2018-11-20T09:40:57.831Z,7.70
2018-11-20T09:43:59.225Z,7.50
2018-11-20T09:47:02.017Z,6.80
2018-11-20T09:49:55.777Z,7.13
2018-11-20T09:52:49.154Z,7.10
2018-11-20T09:55:48.647Z,8.27
2018-11-20T09:58:37.125Z,7.07
2018-11-20T10:01:23.126Z,7.33
2018-11-20T10:03:58.879Z,6.73
2018-11-20T10:06:46.398Z,7.47
2018-11-20T10:09:42.751Z,7.10
2018-11-20T10:12:28.243Z,7.00
2018-11-20T10:15:24.369Z,7.50
2018-11-20T10:18:10.647Z,7.03
2018-11-20T10:21:03.706Z,8.23
2018-11-20T10:23:51.400Z,12.10
2018-11-20T10:26:37.622Z,9.67
2018-11-20T10:29:59.877Z,7.43
2018-11-20T10:32:45.790Z,7.30
2018-11-20T10:35:29.423Z,7.63
2018-11-20T10:38:15.548Z,7.57
2018-11-20T10:41:08.629Z,7.63
2018-11-20T10:44:11.119Z,7.53
2018-11-20T10:47:10.831Z,7.20
2018-11-20T10:49:56.726Z,7.90
2018-11-20T10:52:47.102Z,7.40
2018-11-20T10:55:40.612Z,8.07
2018-11-20T10:58:36.722Z,7.63
2018-11-20T11:01:23.012Z,7.90
2018-11-20T11:04:19.696Z,7.70
2018-11-20T11:07:11.911Z,7.93
2018-11-20T11:09:42.806Z,8.33
2018-11-20T11:12:28.955Z,8.33
2018-11-20T11:15:14.889Z,8.20
2018-11-20T11:18:17.674Z,7.93
2018-11-20T11:21:04.209Z,7.90
2018-11-20T11:24:00.700Z,8.00
2018-11-20T11:26:47.281Z,8.37
2018-11-20T11:29:33.195Z,8.17
2018-11-20T11:32:20.705Z,7.77
2018-11-20T11:35:07.262Z,8.20
2018-11-20T11:37:45.269Z,7.83
2018-11-20T11:40:35.512Z,7.93
2018-11-20T11:43:20.228Z,7.70
2018-11-20T11:46:25.814Z,6.93
2018-11-20T11:49:12.169Z,8.00
2018-11-20T11:52:14.936Z,8.03
2018-11-20T11:54:58.261Z,7.70
2018-11-20T11:58:03.976Z,8.33
2018-11-20T12:00:57.310Z,7.90
2018-11-20T12:03:40.721Z,10.47
2018-11-20T12:06:28.281Z,9.10
2018-11-20T12:09:14.417Z,7.80
2018-11-20T12:12:04.773Z,8.00
2018-11-20T12:14:52.270Z,8.20
2018-11-20T12:17:45.522Z,7.53
2018-11-20T12:20:31.586Z,7.90
2018-11-20T12:23:28.109Z,7.07
2018-11-20T12:26:14.204Z,7.90
2018-11-20T12:29:00.313Z,7.60
2018-11-20T12:31:50.675Z,7.63
2018-11-20T12:34:41.494Z,8.40
2018-11-20T12:37:29.022Z,7.00
2018-11-20T12:40:14.608Z,6.90
2018-11-20T12:42:59.630Z,6.90
2018-11-20T12:46:13.308Z,6.80
2018-11-20T12:49:00.380Z,6.37
2018-11-20T12:52:00.074Z,6.87
2018-11-20T12:54:46.237Z,7.40
2018-11-20T12:57:36.680Z,6.50
2018-11-20T13:00:31.713Z,6.37
2018-11-20T13:03:19.255Z,6.40
2018-11-20T13:06:10.342Z,6.87
2018-11-20T13:08:56.265Z,6.43
2018-11-20T13:11:42.661Z,7.70
2018-11-20T13:14:36.789Z,6.73
2018-11-20T13:17:22.126Z,7.10
2018-11-20T13:20:08.090Z,6.57
2018-11-20T13:22:55.637Z,6.90
2018-11-20T13:25:40.690Z,6.60
2018-11-20T13:28:46.533Z,6.40
2018-11-20T13:31:46.168Z,8.20
2018-11-20T13:34:49.843Z,7.03
2018-11-20T13:37:37.545Z,7.20
2018-11-20T13:40:24.173Z,6.73
2018-11-20T13:43:02.500Z,7.70
2018-11-20T13:46:05.354Z,6.93
2018-11-20T13:49:05.161Z,6.40
2018-11-20T13:51:56.941Z,6.40
2018-11-20T13:54:45.470Z,6.60
2018-11-20T13:57:38.962Z,7.23
2018-11-20T14:00:25.555Z,6.57
2018-11-20T14:03:06.731Z,6.47
2018-11-20T14:06:00.155Z,6.13
2018-11-20T14:08:56.556Z,6.10
2018-11-20T14:11:40.039Z,6.50
2018-11-20T14:14:17.875Z,6.87
2018-11-20T14:17:20.454Z,6.93
2018-11-20T14:20:13.690Z,8.03
2018-11-20T14:23:07.061Z,6.60
2018-11-20T14:25:53.407Z,7.17
2018-11-20T14:28:40.914Z,8.20
2018-11-20T14:31:31.236Z,7.60
2018-11-20T14:34:24.592Z,6.77
2018-11-20T14:37:18.066Z,6.90
2018-11-20T14:40:04.548Z,7.33
2018-11-20T14:42:50.988Z,7.17
2018-11-20T14:45:43.667Z,7.43
2018-11-20T14:48:46.504Z,8.97
2018-11-20T14:51:32.485Z,8.77
2018-11-20T14:54:20.021Z,9.40
2018-11-20T14:57:03.093Z,10.43
2018-11-20T15:00:05.789Z,10.50
2018-11-20T15:02:51.923Z,8.23
2018-11-20T15:05:38.889Z,8.50
2018-11-20T15:08:24.890Z,11.47
2018-11-20T15:11:10.913Z,10.30
2018-11-20T15:13:55.947Z,11.50
2018-11-20T15:16:46.585Z,10.80
2018-11-20T15:19:34.113Z,9.93
2018-11-20T15:22:33.913Z,10.10
2018-11-20T15:25:22.303Z,9.63
2018-11-20T15:28:12.534Z,10.20
2018-11-20T15:30:58.487Z,10.00
2018-11-20T15:33:42.384Z,9.90
2018-11-20T15:36:29.922Z,10.23
2018-11-20T15:39:14.674Z,9.97
2018-11-20T15:42:17.140Z,10.33
2018-11-20T15:45:04.686Z,11.63
2018-11-20T15:47:54.897Z,10.43
2018-11-20T15:50:38.883Z,11.57
2018-11-20T15:53:44.577Z,11.43
2018-11-20T15:56:24.069Z,12.00
2018-11-20T15:59:11.620Z,11.80
2018-11-20T16:02:11.452Z,12.50
2018-11-20T16:04:57.647Z,11.40
2018-11-20T16:07:45.184Z,11.57
2018-11-20T16:10:32.804Z,11.43
2018-11-20T16:13:08.817Z,14.17
2018-11-20T16:15:56.417Z,36.60
2018-11-20T16:18:42.830Z,20.57
2018-11-20T16:21:29.498Z,22.33
2018-11-20T16:24:15.917Z,20.60
2018-11-20T16:27:03.511Z,20.80
2018-11-20T16:29:51.186Z,21.00
2018-11-20T16:32:37.431Z,22.10
2018-11-20T16:35:33.389Z,17.23
2018-11-20T16:38:26.966Z,15.53
2018-11-20T16:41:13.104Z,14.67
2018-11-20T16:44:00.846Z,15.90
2018-11-20T16:46:46.890Z,16.03
2018-11-20T16:49:32.926Z,14.73
2018-11-20T16:52:32.354Z,13.13
2018-11-20T16:55:35.105Z,13.57
2018-11-20T16:58:31.236Z,13.03
2018-11-20T17:01:17.770Z,13.90
2018-11-20T17:04:04.551Z,13.90
2018-11-20T17:06:56.524Z,13.93
2018-11-20T17:09:44.051Z,14.60
2018-11-20T17:12:34.014Z,13.50
2018-11-20T17:15:27.246Z,13.80
2018-11-20T17:18:14.814Z,13.20
2018-11-20T17:21:05.016Z,14.23
2018-11-20T17:24:03.597Z,14.50
2018-11-20T17:26:57.956Z,14.30
2018-11-20T17:29:45.534Z,14.23
2018-11-20T17:32:27.375Z,14.33
2018-11-20T17:35:23.920Z,14.50
2018-11-20T17:38:10.348Z,16.47
2018-11-20T17:40:58.132Z,15.40
2018-11-20T17:43:51.713Z,15.17
2018-11-20T17:46:38.020Z,15.90
2018-11-20T17:49:24.158Z,17.50
2018-11-20T17:52:17.663Z,16.13
2018-11-20T17:55:11.036Z,15.93
2018-11-20T17:57:58.602Z,15.33
2018-11-20T18:00:46.208Z,15.53
2018-11-20T18:03:33.720Z,16.17
2018-11-20T18:06:12.452Z,17.43
2018-11-20T18:09:12.043Z,16.47
2018-11-20T18:12:14.625Z,17.20
2018-11-20T18:15:02.168Z,17.13
2018-11-20T18:18:01.740Z,18.00
2018-11-20T18:20:45.845Z,19.37
2018-11-20T18:23:27.963Z,19.07
2018-11-20T18:26:12.773Z,19.47
2018-11-20T18:29:00.711Z,19.37
2018-11-20T18:31:38.724Z,21.67
2018-11-20T18:34:44.088Z,22.53
2018-11-20T18:37:28.983Z,23.50
2018-11-20T18:40:31.812Z,21.20
2018-11-20T18:43:25.490Z,20.17
2018-11-20T18:46:11.815Z,19.13
2018-11-20T18:49:05.277Z,19.17
2018-11-20T18:51:59.687Z,36.23
2018-11-20T18:54:45.800Z,21.00
2018-11-20T18:57:48.309Z,23.03
2018-11-20T19:00:34.444Z,19.10
2018-11-20T19:03:20.488Z,16.53
2018-11-20T19:06:10.884Z,17.03
2018-11-20T19:09:04.640Z,16.60
2018-11-20T19:11:54.907Z,15.80
2018-11-20T19:15:00.836Z,15.40
2018-11-20T19:17:46.940Z,14.23
2018-11-20T19:20:33.275Z,14.00
2018-11-20T19:23:10.614Z,14.97
2018-11-20T19:25:58.110Z,14.20
2018-11-20T19:28:44.355Z,13.43
2018-11-20T19:31:30.495Z,14.07
2018-11-20T19:34:11.490Z,14.20
2018-11-20T19:36:57.920Z,13.60
2018-11-20T19:39:46.770Z,13.60
2018-11-20T19:42:52.912Z,13.50
2018-11-20T19:45:39.147Z,12.10
2018-11-20T19:48:41.666Z,11.80
2018-11-20T19:51:27.766Z,11.63
2018-11-20T19:54:30.630Z,11.53
2018-11-20T19:57:16.556Z,11.80
2018-11-20T20:00:09.127Z,11.80
2018-11-20T20:02:56.671Z,11.60
2018-11-20T20:05:39.966Z,12.30
2018-11-20T20:08:26.147Z,11.77
2018-11-20T20:11:10.229Z,11.70
2018-11-20T20:13:56.370Z,10.60
2018-11-20T20:16:42.607Z,15.10
2018-11-20T20:19:39.456Z,11.40
2018-11-20T20:22:29.867Z,10.70
2018-11-20T20:25:13.801Z,10.63
2018-11-20T20:28:00.015Z,12.17
2018-11-20T20:30:56.594Z,10.60
2018-11-20T20:33:44.691Z,12.23
2018-11-20T20:36:41.213Z,12.17
2018-11-20T20:39:29.346Z,12.40
2018-11-20T20:42:35.217Z,12.53
2018-11-20T20:45:21.522Z,12.93
2018-11-20T20:48:09.055Z,13.70
2018-11-20T20:50:55.037Z,15.13
2018-11-20T20:53:48.737Z,13.83
2018-11-20T20:56:41.344Z,14.03
2018-11-20T20:59:33.055Z,14.90
2018-11-20T21:02:21.425Z,13.47
2018-11-20T21:05:24.230Z,15.03
2018-11-20T21:08:17.902Z,13.83
2018-11-20T21:11:06.389Z,14.80
2018-11-20T21:13:57.365Z,18.30
2018-11-20T21:16:47.255Z,18.37
2018-11-20T21:19:33.456Z,19.43
2018-11-20T21:22:19.828Z,16.87
2018-11-20T21:25:13.194Z,17.77
2018-11-20T21:28:01.625Z,17.27
2018-11-20T21:31:04.214Z,17.17
2018-11-20T21:34:03.846Z,19.47
2018-11-20T21:36:57.246Z,19.80
2018-11-20T21:39:43.760Z,21.13
2018-11-20T21:42:41.458Z,21.83
2018-11-20T21:45:29.003Z,21.90
2018-11-20T21:48:22.328Z,23.47
2018-11-20T21:51:08.315Z,25.97
2018-11-20T21:53:46.353Z,27.23
2018-11-20T21:56:51.797Z,27.20
2018-11-20T22:00:02.578Z,27.17
2018-11-20T22:02:49.688Z,28.57
2018-11-20T22:05:33.603Z,29.00
2018-11-20T22:08:30.108Z,28.40
2018-11-20T22:11:09.883Z,28.37
2018-11-20T22:13:53.159Z,29.07
2018-11-20T22:16:55.675Z,32.58
2018-11-20T22:19:42.054Z,30.03
2018-11-20T22:22:32.773Z,29.63
2018-11-20T22:25:26.472Z,29.53
2018-11-20T22:28:07.667Z,28.90
